Time;durP1;ratioP1;P1;durP2;ratioP2;P2;SDS_P1;SDS_P2;PMS_P1;PMS_P2;Temp;Humidity;BMP_temperature;BMP_pressure;BME280_temperature;BME280_humidity;BME280_pressure;Samples;Min_cycle;Max_cycle;Signal;HPM_P1;HPM_P2
2024/02/18 00:01:44;;;;;;;;;;;;;;;9.92;62.05;100354.12;68418;1279;1015269;-70
2024/02/18 00:04:49;;;;;;;;;;;;;;;9.90;62.38;100358.34;68422;1279;1016044;-70
2024/02/18 00:07:51;;;;;;;;;;;;;;;9.83;62.05;100364.86;68423;1279;1015934;-70
2024/02/18 00:10:54;;;;;;;;;;;;;;;9.81;62.83;100373.67;68409;1279;1016079;-70
2024/02/18 00:13:56;;;;;;;;;;;;;;;9.86;63.28;100371.23;68405;1279;1015458;-70
2024/02/18 00:16:59;;;;;;;;;;;;;;;9.80;62.43;100385.62;68429;1279;1015485;-70
2024/02/18 00:20:03;;;;;;;;;;;;;;;9.82;63.17;100381.87;68406;1279;1015798;-70
2024/02/18 00:23:05;;;;;;;;;;;;;;;9.84;63.37;100388.45;68407;1279;1015969;-70
2024/02/18 00:26:08;;;;;;;;;;;;;;;9.91;63.45;100390.30;68418;1279;1014839;-70
2024/02/18 00:29:10;;;;;;;;;;;;;;;10.00;62.98;100393.31;68412;1279;1015399;-70
2024/02/18 00:32:13;;;;;;;;;;;;;;;10.00;62.90;100399.44;68424;1279;1016214;-70
2024/02/18 00:35:15;;;;;;;;;;;;;;;10.03;62.95;100393.91;68428;1279;1015258;-70
2024/02/18 00:38:18;;;;;;;;;;;;;;;9.97;62.88;100395.88;68416;1279;1015645;-70
2024/02/18 00:41:21;;;;;;;;;;;;;;;9.93;63.04;100398.80;68408;1279;1016026;-70
2024/02/18 00:44:24;;;;;;;;;;;;;;;9.96;63.08;100395.38;68401;1279;1014813;-70
2024/02/18 00:47:26;;;;;;;;;;;;;;;9.99;63.59;100393.89;68422;1279;1015293;-70
2024/02/18 00:50:29;;;;;;;;;;;;;;;10.03;63.15;100397.04;68419;1279;1014539;-70
2024/02/18 00:53:31;;;;;;;;;;;;;;;10.07;63.92;100396.93;68400;1279;1015740;-70
2024/02/18 00:56:34;;;;;;;;;;;;;;;10.11;63.50;100405.72;68421;1279;1015739;-70
2024/02/18 00:59:36;;;;;;;;;;;;;;;9.96;63.80;100405.16;68390;1279;1015723;-70
2024/02/18 01:02:39;;;;;;;;;;;;;;;9.93;63.77;100404.57;68410;1279;1016087;-70
2024/02/18 01:05:42;;;;;;;;;;;;;;;9.81;64.16;100405.30;68423;1279;1015336;-69
2024/02/18 01:08:44;;;;;;;;;;;;;;;9.80;64.11;100410.59;68399;1279;1016468;-70
2024/02/18 01:11:47;;;;;;;;;;;;;;;9.79;63.81;100409.04;68411;1279;1016102;-70
2024/02/18 01:14:50;;;;;;;;;;;;;;;9.85;63.27;100410.41;68406;1279;1015984;-70
2024/02/18 01:17:53;;;;;;;;;;;;;;;9.84;63.73;100413.59;68415;1279;1015906;-70
2024/02/18 01:20:55;;;;;;;;;;;;;;;9.91;63.41;100415.30;68383;1279;1014343;-70
2024/02/18 01:23:58;;;;;;;;;;;;;;;9.87;63.11;100413.85;68390;1279;1015448;-70
2024/02/18 01:27:00;;;;;;;;;;;;;;;9.86;63.45;100411.59;68418;1279;1015761;-70
2024/02/18 01:30:03;;;;;;;;;;;;;;;9.77;63.55;100416.41;68403;1279;1015623;-70
2024/02/18 01:33:05;;;;;;;;;;;;;;;9.67;63.89;100422.17;68390;1279;1015964;-70
2024/02/18 01:36:08;;;;;;;;;;;;;;;9.59;64.34;100422.07;68395;1279;1014642;-70
2024/02/18 01:39:11;;;;;;;;;;;;;;;9.54;64.40;100430.08;68399;1279;1015945;-69
2024/02/18 01:42:13;;;;;;;;;;;;;;;9.52;65.07;100428.04;68409;1279;1015309;-70
2024/02/18 01:45:16;;;;;;;;;;;;;;;9.52;65.17;100430.83;68391;1279;1015484;-70
2024/02/18 01:48:19;;;;;;;;;;;;;;;9.59;64.53;100434.29;68407;1280;1016150;-70
2024/02/18 01:51:24;;;;;;;;;;;;;;;9.52;64.80;100432.06;68360;1280;1015927;-70
2024/02/18 01:54:33;;;;;;;;;;;;;;;9.58;64.23;100437.12;68434;1280;1015574;-70
2024/02/18 01:57:35;;;;;;;;;;;;;;;9.54;63.94;100439.86;68404;1280;1016241;-70
2024/02/18 02:00:39;;;;;;;;;;;;;;;9.47;64.17;100445.65;68407;1280;1015883;-70
2024/02/18 02:03:41;;;;;;;;;;;;;;;9.33;64.03;100451.33;68415;1280;1015265;-70
2024/02/18 02:06:44;;;;;;;;;;;;;;;9.25;63.82;100462.39;68403;1279;1015445;-70
2024/02/18 02:09:46;;;;;;;;;;;;;;;9.24;64.66;100462.41;68403;1279;1015629;-70
2024/02/18 02:12:50;;;;;;;;;;;;;;;9.19;65.22;100458.02;68420;1279;1015335;-70
2024/02/18 02:15:52;;;;;;;;;;;;;;;9.13;64.72;100461.15;68408;1280;1015709;-70
2024/02/18 02:18:55;;;;;;;;;;;;;;;9.02;65.13;100462.52;68421;1280;1015769;-70
2024/02/18 02:21:57;;;;;;;;;;;;;;;9.06;65.59;100460.85;68401;1279;1015261;-70
2024/02/18 02:25:00;;;;;;;;;;;;;;;8.88;65.61;100467.45;68422;1279;1016339;-68
2024/02/18 02:28:03;;;;;;;;;;;;;;;8.88;65.98;100470.95;68413;1279;1016199;-70
2024/02/18 02:31:05;;;;;;;;;;;;;;;8.90;65.62;100466.01;68412;1279;1016264;-70
2024/02/18 02:34:08;;;;;;;;;;;;;;;8.91;64.71;100465.80;68400;1279;1015924;-70
2024/02/18 02:37:10;;;;;;;;;;;;;;;8.80;64.91;100461.91;68394;1279;1016165;-70
2024/02/18 02:40:13;;;;;;;;;;;;;;;8.93;64.51;100459.63;68343;1281;1016124;-69
2024/02/18 02:43:16;;;;;;;;;;;;;;;8.82;62.78;100460.45;68350;1281;1015814;-70
2024/02/18 02:46:19;;;;;;;;;;;;;;;8.78;64.63;100460.75;68341;1281;1015747;-70
2024/02/18 02:49:22;;;;;;;;;;;;;;;8.76;64.39;100459.61;68337;1281;1015164;-70
2024/02/18 02:52:25;;;;;;;;;;;;;;;8.82;64.39;100465.35;68355;1281;1014541;-70
2024/02/18 02:55:28;;;;;;;;;;;;;;;8.83;64.33;100462.68;68345;1281;1014992;-70
2024/02/18 02:58:30;;;;;;;;;;;;;;;8.93;64.77;100462.26;68330;1281;1015597;-70
2024/02/18 03:01:33;;;;;;;;;;;;;;;8.91;64.91;100463.20;68324;1281;1015982;-70
2024/02/18 03:04:35;;;;;;;;;;;;;;;8.98;64.32;100464.73;68336;1281;1016377;-70
2024/02/18 03:07:38;;;;;;;;;;;;;;;8.96;64.72;100465.83;68354;1281;1015858;-69
2024/02/18 03:10:41;;;;;;;;;;;;;;;8.89;64.76;100462.20;68351;1281;1016305;-70
2024/02/18 03:13:43;;;;;;;;;;;;;;;8.83;64.77;100469.50;68339;1281;1015683;-70
2024/02/18 03:16:46;;;;;;;;;;;;;;;8.78;64.95;100475.23;68346;1281;1015664;-70
2024/02/18 03:19:48;;;;;;;;;;;;;;;8.71;64.65;100478.03;68339;1281;1015279;-70
2024/02/18 03:22:51;;;;;;;;;;;;;;;8.69;64.94;100479.66;68346;1281;1016037;-70
2024/02/18 03:25:54;;;;;;;;;;;;;;;8.71;64.57;100483.09;68349;1281;1015528;-70
2024/02/18 03:28:56;;;;;;;;;;;;;;;8.63;64.24;100480.14;68333;1281;1015642;-70
2024/02/18 03:31:59;;;;;;;;;;;;;;;8.62;64.11;100485.93;68341;1281;1015519;-70
2024/02/18 03:35:03;;;;;;;;;;;;;;;8.58;65.04;100489.54;68335;1281;1015605;-69
2024/02/18 03:38:05;;;;;;;;;;;;;;;8.52;65.59;100495.80;68376;1279;1015464;-71
2024/02/18 03:41:08;;;;;;;;;;;;;;;8.48;65.83;100498.16;68389;1279;1015270;-70
2024/02/18 03:44:11;;;;;;;;;;;;;;;8.62;65.61;100505.11;68403;1279;1016179;-70
2024/02/18 03:47:13;;;;;;;;;;;;;;;8.54;66.74;100508.48;68384;1279;1015682;-70
2024/02/18 03:50:16;;;;;;;;;;;;;;;8.48;67.54;100509.85;68424;1279;1016136;-70
2024/02/18 03:53:19;;;;;;;;;;;;;;;8.48;67.97;100510.36;68405;1279;1015561;-70
2024/02/18 03:56:21;;;;;;;;;;;;;;;8.38;68.05;100514.59;68403;1279;1016112;-70
2024/02/18 03:59:24;;;;;;;;;;;;;;;8.16;69.04;100518.27;68411;1279;1016049;-70
2024/02/18 04:02:26;;;;;;;;;;;;;;;8.10;68.95;100523.46;68399;1279;1016216;-70
2024/02/18 04:05:29;;;;;;;;;;;;;;;8.10;69.06;100523.45;68403;1279;1014372;-70
2024/02/18 04:08:32;;;;;;;;;;;;;;;7.96;69.79;100525.52;68399;1279;1015408;-70
2024/02/18 04:11:34;;;;;;;;;;;;;;;7.89;70.58;100521.69;68388;1279;1015376;-70
2024/02/18 04:14:37;;;;;;;;;;;;;;;7.92;69.84;100529.80;68395;1279;1015808;-70
2024/02/18 04:17:40;;;;;;;;;;;;;;;7.85;70.05;100531.68;68395;1279;1015939;-70
2024/02/18 04:20:43;;;;;;;;;;;;;;;7.77;70.47;100526.82;68369;1279;1016005;-69
2024/02/18 04:23:45;;;;;;;;;;;;;;;7.62;70.24;100523.83;68402;1279;1016261;-70
2024/02/18 04:26:48;;;;;;;;;;;;;;;7.53;70.22;100536.74;68397;1279;1016385;-70
2024/02/18 04:29:51;;;;;;;;;;;;;;;7.47;68.98;100534.77;68408;1279;1015841;-70
2024/02/18 04:32:53;;;;;;;;;;;;;;;7.43;69.15;100540.77;68394;1279;1015007;-70
2024/02/18 04:35:56;;;;;;;;;;;;;;;7.36;69.22;100544.05;68375;1279;1015600;-70
2024/02/18 04:38:59;;;;;;;;;;;;;;;7.29;69.08;100543.67;68381;1279;1015916;-70
2024/02/18 04:42:01;;;;;;;;;;;;;;;7.31;69.16;100540.67;68378;1279;1015863;-70
2024/02/18 04:45:04;;;;;;;;;;;;;;;7.30;68.51;100548.36;68386;1279;1015380;-70
2024/02/18 04:48:06;;;;;;;;;;;;;;;7.32;68.90;100546.58;68389;1279;1016284;-70
2024/02/18 04:51:09;;;;;;;;;;;;;;;7.44;68.13;100547.02;68403;1279;1016522;-70
2024/02/18 04:54:15;;;;;;;;;;;;;;;7.40;67.60;100547.64;68392;1279;1015314;-70
2024/02/18 04:57:17;;;;;;;;;;;;;;;7.35;66.92;100551.38;68410;1279;1015422;-70
2024/02/18 05:00:20;;;;;;;;;;;;;;;7.34;67.09;100550.36;68401;1279;1015588;-70
2024/02/18 05:03:22;;;;;;;;;;;;;;;7.32;67.17;100553.52;68378;1279;1015565;-70
2024/02/18 05:06:25;;;;;;;;;;;;;;;7.34;67.07;100550.70;68415;1279;1016198;-61
2024/02/18 05:09:28;;;;;;;;;;;;;;;7.33;67.22;100553.52;68409;1279;1014509;-70
2024/02/18 05:12:31;;;;;;;;;;;;;;;7.34;67.33;100551.75;68398;1279;1015435;-70
2024/02/18 05:15:33;;;;;;;;;;;;;;;7.42;67.38;100554.90;68403;1279;1015420;-70
2024/02/18 05:18:36;;;;;;;;;;;;;;;7.50;67.14;100555.98;68388;1279;1015966;-70
2024/02/18 05:21:38;;;;;;;;;;;;;;;7.50;67.57;100550.38;68373;1279;1015587;-70
2024/02/18 05:24:41;;;;;;;;;;;;;;;7.41;67.10;100552.83;68407;1279;1015927;-70
2024/02/18 05:27:44;;;;;;;;;;;;;;;7.35;67.14;100551.05;68403;1279;1016017;-70
2024/02/18 05:30:46;;;;;;;;;;;;;;;7.36;67.12;100547.03;68389;1279;1016016;-70
2024/02/18 05:33:49;;;;;;;;;;;;;;;7.31;66.82;100557.55;68395;1279;1016444;-69
2024/02/18 05:36:52;;;;;;;;;;;;;;;7.22;67.00;100553.56;68406;1279;1015397;-70
2024/02/18 05:39:54;;;;;;;;;;;;;;;7.17;67.43;100548.95;68383;1279;1015426;-66
2024/02/18 05:42:57;;;;;;;;;;;;;;;7.21;67.27;100548.88;68388;1279;1015819;-70
2024/02/18 05:45:59;;;;;;;;;;;;;;;7.24;67.10;100553.51;68389;1279;1015594;-70
2024/02/18 05:49:02;;;;;;;;;;;;;;;7.30;67.06;100551.31;68403;1279;1016024;-69
2024/02/18 05:52:04;;;;;;;;;;;;;;;7.30;67.27;100553.40;68398;1279;1015657;-70
2024/02/18 05:55:08;;;;;;;;;;;;;;;7.50;67.11;100556.98;68415;1279;1015590;-70
2024/02/18 05:58:12;;;;;;;;;;;;;;;7.66;66.32;100558.76;68396;1279;1015626;-71
2024/02/18 06:01:15;;;;;;;;;;;;;;;7.77;66.12;100561.48;68402;1279;1016187;-70
2024/02/18 06:04:17;;;;;;;;;;;;;;;7.78;66.22;100563.19;68412;1279;1015569;-70
2024/02/18 06:07:20;;;;;;;;;;;;;;;7.75;65.87;100569.89;68401;1279;1016169;-70
2024/02/18 06:10:23;;;;;;;;;;;;;;;7.76;66.17;100573.51;68399;1279;1016077;-70
2024/02/18 06:13:26;;;;;;;;;;;;;;;7.89;65.83;100571.14;68402;1279;1015722;-70
2024/02/18 06:16:28;;;;;;;;;;;;;;;8.18;65.43;100572.59;68397;1279;1015714;-70
2024/02/18 06:19:31;;;;;;;;;;;;;;;8.33;65.17;100574.85;68394;1279;1015334;-70
2024/02/18 06:22:33;;;;;;;;;;;;;;;8.48;65.14;100579.41;68412;1279;1015931;-70
2024/02/18 06:25:37;;;;;;;;;;;;;;;8.58;64.18;100581.61;68405;1279;1016275;-70
2024/02/18 06:28:39;;;;;;;;;;;;;;;8.57;63.94;100587.04;68408;1279;1015570;-70
2024/02/18 06:31:42;;;;;;;;;;;;;;;8.58;63.71;100583.87;68391;1279;1015569;-70
2024/02/18 06:34:44;;;;;;;;;;;;;;;8.60;63.61;100589.23;68402;1279;1015170;-70
2024/02/18 06:37:47;;;;;;;;;;;;;;;8.63;62.71;100590.21;68400;1279;1015106;-71
2024/02/18 06:40:49;;;;;;;;;;;;;;;8.55;63.00;100589.70;68401;1279;1015814;-70
2024/02/18 06:43:52;;;;;;;;;;;;;;;8.59;63.36;100600.06;68412;1279;1015571;-70
2024/02/18 06:46:54;;;;;;;;;;;;;;;8.49;62.10;100600.47;68384;1279;1016024;-70
2024/02/18 06:49:57;;;;;;;;;;;;;;;8.33;62.99;100606.06;68424;1279;1015822;-68
2024/02/18 06:53:00;;;;;;;;;;;;;;;8.20;63.29;100611.94;68413;1279;1015241;-70
2024/02/18 06:56:03;;;;;;;;;;;;;;;8.18;63.66;100616.16;68410;1279;1016012;-70
2024/02/18 06:59:06;;;;;;;;;;;;;;;8.21;64.18;100623.05;68404;1279;1014750;-70
2024/02/18 07:02:09;;;;;;;;;;;;;;;8.29;64.28;100625.67;68396;1279;1016101;-70
2024/02/18 07:05:12;;;;;;;;;;;;;;;8.33;64.23;100630.61;68395;1279;1015529;-65
2024/02/18 07:08:15;;;;;;;;;;;;;;;8.40;64.38;100629.77;68425;1279;1015217;-71
2024/02/18 07:11:18;;;;;;;;;;;;;;;8.28;63.27;100631.08;68412;1279;1015527;-70
2024/02/18 07:14:20;;;;;;;;;;;;;;;8.22;62.75;100637.67;68395;1279;1016177;-70
2024/02/18 07:17:23;;;;;;;;;;;;;;;8.07;63.31;100632.59;68412;1279;1016362;-70
2024/02/18 07:20:26;;;;;;;;;;;;;;;8.15;63.27;100635.21;68403;1279;1015947;-66
2024/02/18 07:23:29;;;;;;;;;;;;;;;8.34;62.28;100634.60;68397;1279;1015255;-70
2024/02/18 07:26:31;;;;;;;;;;;;;;;8.34;62.71;100636.52;68421;1279;1016173;-70
2024/02/18 07:29:34;;;;;;;;;;;;;;;8.35;62.21;100638.27;68407;1279;1015292;-70
2024/02/18 07:32:36;;;;;;;;;;;;;;;8.32;62.74;100641.79;68413;1279;1015913;-71
2024/02/18 07:35:40;;;;;;;;;;;;;;;8.37;62.15;100643.27;68404;1279;1015692;-70
2024/02/18 07:38:42;;;;;;;;;;;;;;;8.46;61.88;100642.90;68373;1279;1015970;-70
2024/02/18 07:41:46;;;;;;;;;;;;;;;8.58;61.32;100642.30;68357;1281;1016600;-70
2024/02/18 07:44:48;;;;;;;;;;;;;;;8.59;61.44;100644.53;68364;1281;1016023;-70
2024/02/18 07:47:51;;;;;;;;;;;;;;;8.70;61.43;100640.23;68348;1281;1015975;-70
2024/02/18 07:50:53;;;;;;;;;;;;;;;8.72;59.99;100641.08;68371;1281;1015367;-70
2024/02/18 07:53:56;;;;;;;;;;;;;;;8.63;59.08;100650.17;68355;1281;1015732;-70
2024/02/18 07:56:58;;;;;;;;;;;;;;;8.63;59.26;100654.71;68364;1281;1015731;-70
2024/02/18 08:00:01;;;;;;;;;;;;;;;8.69;59.76;100656.66;68346;1281;1016155;-70
2024/02/18 08:03:04;;;;;;;;;;;;;;;8.66;58.96;100659.20;65959;1281;5360858;-70
2024/02/18 08:06:08;;;;;;;;;;;;;;;8.53;58.52;100654.09;68352;1281;1015139;-70
2024/02/18 08:09:10;;;;;;;;;;;;;;;8.56;58.76;100656.11;68357;1281;1015900;-70
2024/02/18 08:12:13;;;;;;;;;;;;;;;8.55;56.84;100665.89;68359;1281;1015361;-70
2024/02/18 08:15:24;;;;;;;;;;;;;;;8.43;56.70;100669.80;68333;1281;1016320;-70
2024/02/18 08:18:27;;;;;;;;;;;;;;;8.38;57.07;100671.83;68365;1280;1015407;-70
2024/02/18 08:21:29;;;;;;;;;;;;;;;8.52;58.24;100667.87;68374;1281;1015655;-70
2024/02/18 08:24:32;;;;;;;;;;;;;;;8.55;57.18;100662.58;68362;1281;1015451;-70
2024/02/18 08:27:35;;;;;;;;;;;;;;;8.52;56.84;100663.52;68351;1281;1015334;-63
2024/02/18 08:30:37;;;;;;;;;;;;;;;8.59;55.17;100664.76;68358;1281;1015340;-70
2024/02/18 08:33:40;;;;;;;;;;;;;;;8.51;54.29;100662.67;68381;1281;1015990;-70
2024/02/18 08:36:42;;;;;;;;;;;;;;;8.54;55.36;100661.39;68341;1281;1015297;-70
2024/02/18 08:39:45;;;;;;;;;;;;;;;8.71;54.70;100663.61;68393;1279;1016090;-64
2024/02/18 08:42:47;;;;;;;;;;;;;;;8.78;54.23;100662.39;68405;1279;1015735;-70
2024/02/18 08:45:50;;;;;;;;;;;;;;;8.73;53.05;100664.23;68437;1279;1015848;-70
2024/02/18 08:48:54;;;;;;;;;;;;;;;8.76;53.69;100664.01;68412;1279;1014297;-70
2024/02/18 08:51:58;;;;;;;;;;;;;;;8.88;53.30;100663.17;68409;1279;1015910;-70
2024/02/18 08:55:00;;;;;;;;;;;;;;;8.96;53.98;100658.63;68411;1279;1015037;-70
2024/02/18 08:58:04;;;;;;;;;;;;;;;9.13;53.99;100658.21;68440;1279;1016043;-70
2024/02/18 09:01:07;;;;;;;;;;;;;;;9.32;53.02;100657.54;68409;1279;1014394;-70
2024/02/18 09:04:10;;;;;;;;;;;;;;;9.58;52.22;100657.17;68412;1279;1016526;-70
2024/02/18 09:07:12;;;;;;;;;;;;;;;9.72;51.75;100653.82;68429;1279;1016054;-70
2024/02/18 09:10:15;;;;;;;;;;;;;;;9.99;52.11;100654.80;68409;1279;1015779;-70
2024/02/18 09:13:18;;;;;;;;;;;;;;;10.13;51.23;100655.60;68407;1279;1014767;-69
2024/02/18 09:16:20;;;;;;;;;;;;;;;10.23;50.43;100654.79;68428;1279;1015045;-70
2024/02/18 09:19:23;;;;;;;;;;;;;;;10.40;51.17;100653.41;68419;1279;1015873;-70
2024/02/18 09:22:25;;;;;;;;;;;;;;;10.45;49.26;100656.41;68413;1279;1015846;-70
2024/02/18 09:25:28;;;;;;;;;;;;;;;10.32;48.45;100659.42;68440;1279;1014508;-70
2024/02/18 09:28:31;;;;;;;;;;;;;;;10.28;48.78;100655.88;68415;1279;1016145;-70
2024/02/18 09:31:33;;;;;;;;;;;;;;;10.39;48.38;100648.89;68404;1279;1016251;-69
2024/02/18 09:34:37;;;;;;;;;;;;;;;10.50;48.25;100645.77;68424;1279;1015794;-70
2024/02/18 09:37:39;;;;;;;;;;;;;;;10.41;46.86;100641.13;68420;1279;1016102;-69
2024/02/18 09:40:42;;;;;;;;;;;;;;;10.40;47.45;100641.69;68435;1279;1015938;-70
2024/02/18 09:43:45;;;;;;;;;;;;;;;10.54;48.47;100640.75;68414;1279;1015900;-70
2024/02/18 09:46:48;;;;;;;;;;;;;;;10.77;48.78;100635.45;68412;1279;1015427;-70
2024/02/18 09:49:51;;;;;;;;;;;;;;;11.13;48.25;100634.95;68427;1279;1015874;-70
2024/02/18 09:52:53;;;;;;;;;;;;;;;11.41;47.63;100633.79;68412;1279;1015480;-70
2024/02/18 09:55:56;;;;;;;;;;;;;;;11.51;46.68;100629.26;68445;1279;1015825;-69
2024/02/18 09:58:58;;;;;;;;;;;;;;;11.51;47.25;100631.00;68423;1279;1015273;-69
2024/02/18 10:02:01;;;;;;;;;;;;;;;11.38;46.70;100626.71;68426;1279;1015255;-69
2024/02/18 10:05:04;;;;;;;;;;;;;;;11.61;47.49;100623.77;68435;1279;1015328;-70
2024/02/18 10:08:07;;;;;;;;;;;;;;;11.62;46.13;100619.54;68432;1279;1015903;-69
2024/02/18 10:11:09;;;;;;;;;;;;;;;11.43;45.49;100618.66;68431;1279;1015833;-70
2024/02/18 10:14:12;;;;;;;;;;;;;;;11.68;47.27;100619.86;68424;1279;1016113;-70
2024/02/18 10:17:14;;;;;;;;;;;;;;;12.05;46.28;100611.69;68429;1279;1014949;-69
2024/02/18 10:20:17;;;;;;;;;;;;;;;12.24;45.67;100609.69;68430;1279;1016561;-70
2024/02/18 10:23:19;;;;;;;;;;;;;;;12.07;43.72;100612.30;68445;1279;1016135;-69
2024/02/18 10:26:22;;;;;;;;;;;;;;;11.54;43.15;100614.77;68443;1279;1015813;-65
2024/02/18 10:29:25;;;;;;;;;;;;;;;11.68;46.08;100620.38;68447;1279;1015879;-70
2024/02/18 10:32:29;;;;;;;;;;;;;;;12.10;45.70;100617.96;68435;1279;1015463;-70
2024/02/18 10:35:31;;;;;;;;;;;;;;;12.27;44.23;100607.13;68459;1279;1014635;-70
2024/02/18 10:38:34;;;;;;;;;;;;;;;12.04;44.32;100607.67;68438;1279;1015799;-70
2024/02/18 10:41:36;;;;;;;;;;;;;;;11.97;43.71;100604.95;68410;1279;1015415;-68
2024/02/18 10:44:39;;;;;;;;;;;;;;;11.83;45.81;100598.63;68422;1279;1015013;-70
2024/02/18 10:47:42;;;;;;;;;;;;;;;12.20;45.96;100595.45;68429;1279;1016215;-70
2024/02/18 10:50:45;;;;;;;;;;;;;;;12.47;45.13;100594.04;68413;1279;1015321;-70
2024/02/18 10:53:48;;;;;;;;;;;;;;;12.47;44.15;100581.59;68436;1279;1015128;-70
2024/02/18 10:56:50;;;;;;;;;;;;;;;12.26;44.20;100576.82;68440;1279;1015429;-69
2024/02/18 10:59:53;;;;;;;;;;;;;;;12.22;44.32;100575.75;68417;1279;1015932;-69
2024/02/18 11:02:56;;;;;;;;;;;;;;;12.07;44.73;100572.31;68437;1279;1015548;-70
2024/02/18 11:06:08;;;;;;;;;;;;;;;12.08;44.27;100570.52;68434;1279;1015955;-69
2024/02/18 11:09:11;;;;;;;;;;;;;;;11.80;43.55;100570.86;68430;1279;1016381;-70
2024/02/18 11:12:14;;;;;;;;;;;;;;;11.67;44.64;100568.74;68439;1279;1015883;-70
2024/02/18 11:15:16;;;;;;;;;;;;;;;11.83;44.09;100560.26;68434;1279;1016276;-70
2024/02/18 11:18:19;;;;;;;;;;;;;;;11.89;44.05;100555.28;68437;1279;1015703;-68
2024/02/18 11:21:21;;;;;;;;;;;;;;;11.47;43.42;100557.41;68450;1279;1015871;-69
2024/02/18 11:24:24;;;;;;;;;;;;;;;10.92;43.32;100561.10;68429;1279;1015427;-70
2024/02/18 11:27:27;;;;;;;;;;;;;;;10.87;44.68;100550.42;68430;1279;1015497;-70
2024/02/18 11:30:30;;;;;;;;;;;;;;;11.18;44.72;100541.10;68433;1279;1015596;-70
2024/02/18 11:33:32;;;;;;;;;;;;;;;11.79;45.04;100535.86;68437;1279;1014581;-67
2024/02/18 11:36:35;;;;;;;;;;;;;;;12.19;44.08;100529.41;68427;1279;1015278;-70
2024/02/18 11:39:37;;;;;;;;;;;;;;;12.53;43.85;100518.90;68421;1279;1015649;-70
2024/02/18 11:42:40;;;;;;;;;;;;;;;13.05;43.22;100521.22;68449;1279;1016059;-70
2024/02/18 11:45:42;;;;;;;;;;;;;;;13.37;41.58;100516.48;68422;1279;1016113;-69
2024/02/18 11:48:45;;;;;;;;;;;;;;;13.47;41.19;100516.92;68463;1279;1015507;-70
2024/02/18 11:51:47;;;;;;;;;;;;;;;13.52;41.38;100513.68;68441;1279;1014974;-70
2024/02/18 11:54:50;;;;;;;;;;;;;;;13.45;40.86;100513.11;68443;1279;1016121;-70
2024/02/18 11:57:53;;;;;;;;;;;;;;;13.21;40.78;100506.80;68440;1279;1015680;-70
2024/02/18 12:00:55;;;;;;;;;;;;;;;12.88;40.98;100504.77;68434;1279;1015309;-69
2024/02/18 12:03:58;;;;;;;;;;;;;;;12.82;41.82;100498.86;68432;1279;1015576;-70
2024/02/18 12:07:02;;;;;;;;;;;;;;;12.67;42.02;100487.41;68434;1279;1016292;-70
2024/02/18 12:10:04;;;;;;;;;;;;;;;12.74;42.07;100483.07;68432;1279;1015435;-70
2024/02/18 12:13:07;;;;;;;;;;;;;;;12.82;41.78;100474.46;68434;1279;1015762;-70
2024/02/18 12:16:10;;;;;;;;;;;;;;;13.05;41.42;100468.54;68434;1279;1015636;-69
2024/02/18 12:19:12;;;;;;;;;;;;;;;13.33;41.58;100466.04;68432;1279;1016042;-70
2024/02/18 12:22:15;;;;;;;;;;;;;;;13.52;40.52;100460.48;68434;1279;1016191;-69
2024/02/18 12:25:17;;;;;;;;;;;;;;;13.62;40.39;100453.86;68440;1279;1015915;-70
2024/02/18 12:28:20;;;;;;;;;;;;;;;13.79;40.54;100450.73;68433;1279;1015940;-70
2024/02/18 12:31:23;;;;;;;;;;;;;;;13.92;40.04;100451.86;68437;1279;1015963;-70
2024/02/18 12:34:27;;;;;;;;;;;;;;;13.88;39.43;100445.20;68433;1279;1015431;-70
2024/02/18 12:37:29;;;;;;;;;;;;;;;13.82;39.83;100445.86;68455;1279;1014372;-70
2024/02/18 12:40:31;;;;;;;;;;;;;;;13.91;39.70;100439.09;68429;1279;1015856;-70
2024/02/18 12:43:34;;;;;;;;;;;;;;;14.15;39.88;100435.07;68432;1279;1016253;-69
2024/02/18 12:46:37;;;;;;;;;;;;;;;14.16;39.18;100425.34;68411;1279;1015065;-65
2024/02/18 12:49:39;;;;;;;;;;;;;;;13.83;39.02;100420.27;68424;1279;1015563;-70
2024/02/18 12:52:42;;;;;;;;;;;;;;;13.89;39.70;100419.30;68430;1279;1015966;-69
2024/02/18 12:55:44;;;;;;;;;;;;;;;13.94;40.35;100417.11;68428;1279;1014272;-70
2024/02/18 12:58:47;;;;;;;;;;;;;;;14.10;40.08;100416.67;68442;1279;1015668;-70
2024/02/18 13:01:49;;;;;;;;;;;;;;;14.01;39.59;100417.83;68440;1279;1016101;-70
2024/02/18 13:04:52;;;;;;;;;;;;;;;13.85;39.68;100414.90;68433;1279;1015628;-70
2024/02/18 13:07:56;;;;;;;;;;;;;;;13.88;39.47;100411.41;68431;1279;1015684;-70
2024/02/18 13:10:59;;;;;;;;;;;;;;;13.84;39.09;100409.33;68439;1279;1014807;-70
2024/02/18 13:14:02;;;;;;;;;;;;;;;13.41;39.19;100399.08;68443;1279;1015198;-69
2024/02/18 13:17:04;;;;;;;;;;;;;;;13.26;40.56;100400.48;68443;1279;1015245;-70
2024/02/18 13:20:07;;;;;;;;;;;;;;;13.71;39.07;100400.63;68444;1279;1016003;-70
2024/02/18 13:23:10;;;;;;;;;;;;;;;13.90;39.52;100391.98;68435;1279;1015440;-70
2024/02/18 13:26:12;;;;;;;;;;;;;;;14.06;39.43;100395.41;68411;1279;1015261;-70
2024/02/18 13:29:15;;;;;;;;;;;;;;;14.28;38.55;100391.30;68435;1279;1016123;-69
2024/02/18 13:32:18;;;;;;;;;;;;;;;14.34;39.24;100380.93;68443;1279;1015835;-70
2024/02/18 13:35:21;;;;;;;;;;;;;;;14.46;38.70;100376.83;68430;1279;1016216;-70
2024/02/18 13:38:24;;;;;;;;;;;;;;;14.63;39.06;100367.83;68453;1279;1015909;-70
2024/02/18 13:41:26;;;;;;;;;;;;;;;14.56;38.05;100359.43;68429;1280;1016033;-70
2024/02/18 13:44:29;;;;;;;;;;;;;;;14.45;38.08;100354.02;68454;1279;1015312;-69
2024/02/18 13:47:32;;;;;;;;;;;;;;;14.56;38.40;100359.25;68430;1280;1016078;-69
2024/02/18 13:50:34;;;;;;;;;;;;;;;14.60;38.74;100353.92;68425;1279;1015343;-70
2024/02/18 13:53:37;;;;;;;;;;;;;;;14.36;39.01;100355.19;68435;1279;1015391;-70
2024/02/18 13:56:41;;;;;;;;;;;;;;;14.45;39.23;100345.56;68441;1280;1015363;-70
2024/02/18 13:59:44;;;;;;;;;;;;;;;14.54;39.08;100344.18;68445;1279;1015560;-70
2024/02/18 14:02:46;;;;;;;;;;;;;;;14.55;38.94;100345.03;68442;1280;1015548;-69
2024/02/18 14:05:49;;;;;;;;;;;;;;;14.39;38.35;100343.20;68449;1280;1016063;-70
2024/02/18 14:08:53;;;;;;;;;;;;;;;13.85;38.35;100341.77;68438;1280;1015579;-70
2024/02/18 14:11:55;;;;;;;;;;;;;;;13.82;39.02;100336.66;68444;1279;1015084;-70
2024/02/18 14:14:58;;;;;;;;;;;;;;;13.86;38.97;100330.85;68443;1280;1015796;-69
2024/02/18 14:18:01;;;;;;;;;;;;;;;13.95;38.95;100333.54;68432;1280;1015369;-70
2024/02/18 14:21:04;;;;;;;;;;;;;;;13.81;38.51;100334.58;68443;1280;1015307;-70
2024/02/18 14:24:06;;;;;;;;;;;;;;;13.72;38.52;100336.09;68432;1280;1015798;-70
2024/02/18 14:27:09;;;;;;;;;;;;;;;13.61;39.06;100338.42;68422;1280;1015647;-69
2024/02/18 14:30:11;;;;;;;;;;;;;;;13.49;38.83;100337.24;68422;1280;1015913;-69
2024/02/18 14:33:14;;;;;;;;;;;;;;;13.51;39.36;100341.52;68425;1280;1015604;-70
2024/02/18 14:36:17;;;;;;;;;;;;;;;13.52;39.56;100336.21;68432;1280;1016080;-70
2024/02/18 14:39:20;;;;;;;;;;;;;;;13.43;40.05;100336.27;68436;1280;1016370;-70
2024/02/18 14:42:23;;;;;;;;;;;;;;;13.46;39.93;100341.75;68430;1280;1016038;-70
2024/02/18 14:45:27;;;;;;;;;;;;;;;13.55;39.80;100338.70;68442;1279;1015413;-70
2024/02/18 14:48:30;;;;;;;;;;;;;;;13.61;39.58;100330.52;68434;1280;1015630;-70
2024/02/18 14:51:34;;;;;;;;;;;;;;;13.75;39.53;100330.30;68422;1279;1015761;-70
2024/02/18 14:54:36;;;;;;;;;;;;;;;13.79;39.35;100321.13;68424;1279;1015735;-70
2024/02/18 14:57:39;;;;;;;;;;;;;;;13.82;39.73;100310.77;68436;1280;1016214;-70
2024/02/18 15:00:42;;;;;;;;;;;;;;;14.01;38.93;100307.88;68437;1280;1015339;-71
2024/02/18 15:03:44;;;;;;;;;;;;;;;13.97;38.90;100312.50;68432;1279;1016044;-70
2024/02/18 15:06:47;;;;;;;;;;;;;;;13.95;38.80;100318.59;68432;1279;1016117;-70
2024/02/18 15:09:51;;;;;;;;;;;;;;;13.91;38.77;100313.32;68443;1279;1015306;-70
2024/02/18 15:12:53;;;;;;;;;;;;;;;13.79;38.98;100308.33;68430;1279;1015990;-70
2024/02/18 15:15:56;;;;;;;;;;;;;;;13.60;39.14;100305.02;68426;1279;1015730;-68
2024/02/18 15:18:59;;;;;;;;;;;;;;;13.38;39.28;100307.52;68413;1279;1015662;-70
2024/02/18 15:22:02;;;;;;;;;;;;;;;13.17;39.30;100304.84;68435;1279;1015880;-69